sensor_id;sensor_type;location;lat;lon;timestamp;pressure;altitude;pressure_sealevel;temperature;humidity
9462;BME280;4769;42.660;23.262;2023-01-25T00:00:27;95044.19;;;3.38;100.00
9462;BME280;4769;42.660;23.262;2023-01-25T00:02:53;95037.94;;;3.24;100.00
9462;BME280;4769;42.660;23.262;2023-01-25T00:05:20;95043.13;;;3.24;100.00
9462;BME280;4769;42.660;23.262;2023-01-25T00:07:47;95036.75;;;3.27;100.00
9462;BME280;4769;42.660;23.262;2023-01-25T00:10:14;95036.47;;;3.44;100.00
9462;BME280;4769;42.660;23.262;2023-01-25T00:12:42;95048.75;;;3.36;100.00
9462;BME280;4769;42.660;23.262;2023-01-25T00:15:10;95039.06;;;3.44;100.00
9462;BME280;4769;42.660;23.262;2023-01-25T00:17:37;95037.81;;;3.40;100.00
9462;BME280;4769;42.660;23.262;2023-01-25T00:20:04;95036.84;;;3.41;100.00
9462;BME280;4769;42.660;23.262;2023-01-25T00:22:31;95049.78;;;3.49;100.00
9462;BME280;4769;42.660;23.262;2023-01-25T00:24:58;95038.78;;;3.39;100.00
9462;BME280;4769;42.660;23.262;2023-01-25T00:27:25;95042.25;;;3.32;100.00
9462;BME280;4769;42.660;23.262;2023-01-25T00:29:53;95048.75;;;3.36;100.00
9462;BME280;4769;42.660;23.262;2023-01-25T00:32:43;95054.97;;;3.35;100.00
9462;BME280;4769;42.660;23.262;2023-01-25T00:35:13;95048.63;;;3.29;100.00
9462;BME280;4769;42.660;23.262;2023-01-25T00:37:42;95049.78;;;3.27;100.00
9462;BME280;4769;42.660;23.262;2023-01-25T00:40:10;95047.66;;;3.30;100.00
9462;BME280;4769;42.660;23.262;2023-01-25T00:42:38;95053.84;;;3.29;100.00
9462;BME280;4769;42.660;23.262;2023-01-25T00:45:08;95048.31;;;3.32;100.00
9462;BME280;4769;42.660;23.262;2023-01-25T00:47:35;95051.38;;;3.36;100.00
9462;BME280;4769;42.660;23.262;2023-01-25T00:50:03;95040.19;;;3.27;100.00
9462;BME280;4769;42.660;23.262;2023-01-25T00:52:30;95038.63;;;3.41;100.00
9462;BME280;4769;42.660;23.262;2023-01-25T00:54:57;95041.88;;;3.43;100.00
9462;BME280;4769;42.660;23.262;2023-01-25T00:57:23;95054.53;;;3.46;100.00
9462;BME280;4769;42.660;23.262;2023-01-25T00:59:50;95050.94;;;3.47;100.00
9462;BME280;4769;42.660;23.262;2023-01-25T01:02:19;95035.78;;;3.50;100.00
9462;BME280;4769;42.660;23.262;2023-01-25T01:04:45;95043.25;;;3.53;100.00
9462;BME280;4769;42.660;23.262;2023-01-25T01:07:13;95037.28;;;3.45;100.00
9462;BME280;4769;42.660;23.262;2023-01-25T01:09:40;95052.06;;;3.52;100.00
9462;BME280;4769;42.660;23.262;2023-01-25T01:12:07;95049.44;;;3.52;100.00
9462;BME280;4769;42.660;23.262;2023-01-25T01:14:33;95051.88;;;3.54;100.00
9462;BME280;4769;42.660;23.262;2023-01-25T01:17:00;95046.56;;;3.47;100.00
9462;BME280;4769;42.660;23.262;2023-01-25T01:19:28;95050.00;;;3.48;100.00
9462;BME280;4769;42.660;23.262;2023-01-25T01:21:56;95036.00;;;3.41;100.00
9462;BME280;4769;42.660;23.262;2023-01-25T01:24:22;95040.66;;;3.31;100.00
9462;BME280;4769;42.660;23.262;2023-01-25T01:26:49;95020.03;;;3.21;100.00
9462;BME280;4769;42.660;23.262;2023-01-25T01:29:16;95036.47;;;3.22;100.00
9462;BME280;4769;42.660;23.262;2023-01-25T01:31:43;95020.88;;;3.14;100.00
9462;BME280;4769;42.660;23.262;2023-01-25T01:34:11;95025.81;;;3.09;100.00
9462;BME280;4769;42.660;23.262;2023-01-25T01:36:40;95014.34;;;3.18;100.00
9462;BME280;4769;42.660;23.262;2023-01-25T01:39:07;95018.94;;;3.16;100.00
9462;BME280;4769;42.660;23.262;2023-01-25T01:41:35;95016.53;;;3.06;100.00
9462;BME280;4769;42.660;23.262;2023-01-25T01:44:03;95028.47;;;3.01;100.00
9462;BME280;4769;42.660;23.262;2023-01-25T01:46:32;95009.56;;;3.07;100.00
9462;BME280;4769;42.660;23.262;2023-01-25T01:49:05;95014.72;;;3.15;100.00
9462;BME280;4769;42.660;23.262;2023-01-25T01:51:42;95016.34;;;3.16;100.00
9462;BME280;4769;42.660;23.262;2023-01-25T01:54:14;95008.22;;;3.11;100.00
9462;BME280;4769;42.660;23.262;2023-01-25T01:56:45;95016.34;;;3.16;100.00
9462;BME280;4769;42.660;23.262;2023-01-25T01:59:14;95019.81;;;3.08;100.00
9462;BME280;4769;42.660;23.262;2023-01-25T02:01:42;95008.38;;;3.09;100.00
9462;BME280;4769;42.660;23.262;2023-01-25T02:04:10;95019.72;;;3.16;100.00
9462;BME280;4769;42.660;23.262;2023-01-25T02:06:44;95012.19;;;3.21;100.00
9462;BME280;4769;42.660;23.262;2023-01-25T02:09:15;95025.72;;;3.25;100.00
9462;BME280;4769;42.660;23.262;2023-01-25T02:11:44;95021.13;;;3.27;100.00
9462;BME280;4769;42.660;23.262;2023-01-25T02:14:13;95022.44;;;3.23;100.00
9462;BME280;4769;42.660;23.262;2023-01-25T02:16:41;95021.00;;;3.20;100.00
9462;BME280;4769;42.660;23.262;2023-01-25T02:19:11;95010.84;;;3.11;100.00
9462;BME280;4769;42.660;23.262;2023-01-25T02:21:43;95020.22;;;3.20;100.00
9462;BME280;4769;42.660;23.262;2023-01-25T02:24:14;95008.56;;;3.08;100.00
9462;BME280;4769;42.660;23.262;2023-01-25T02:26:44;95023.91;;;3.25;100.00
9462;BME280;4769;42.660;23.262;2023-01-25T02:29:11;95016.16;;;3.17;100.00
9462;BME280;4769;42.660;23.262;2023-01-25T02:31:42;95023.19;;;3.09;100.00
9462;BME280;4769;42.660;23.262;2023-01-25T02:34:09;95025.75;;;3.17;100.00
9462;BME280;4769;42.660;23.262;2023-01-25T02:36:35;95023.63;;;3.20;100.00
9462;BME280;4769;42.660;23.262;2023-01-25T02:39:04;95015.91;;;3.27;100.00
9462;BME280;4769;42.660;23.262;2023-01-25T02:41:34;95009.25;;;3.24;100.00
9462;BME280;4769;42.660;23.262;2023-01-25T02:44:05;95015.28;;;3.25;100.00
9462;BME280;4769;42.660;23.262;2023-01-25T02:46:35;95001.59;;;3.23;100.00
9462;BME280;4769;42.660;23.262;2023-01-25T02:49:04;95016.09;;;3.25;100.00
9462;BME280;4769;42.660;23.262;2023-01-25T02:51:33;95006.66;;;3.24;100.00
9462;BME280;4769;42.660;23.262;2023-01-25T02:54:01;95008.50;;;3.16;100.00
9462;BME280;4769;42.660;23.262;2023-01-25T02:56:28;95016.91;;;3.26;100.00
9462;BME280;4769;42.660;23.262;2023-01-25T02:58:55;95011.91;;;3.16;100.00
9462;BME280;4769;42.660;23.262;2023-01-25T03:01:23;95013.56;;;3.17;100.00
9462;BME280;4769;42.660;23.262;2023-01-25T03:03:50;95016.91;;;3.26;100.00
9462;BME280;4769;42.660;23.262;2023-01-25T03:06:17;95023.63;;;3.20;100.00
9462;BME280;4769;42.660;23.262;2023-01-25T03:08:44;95025.22;;;3.21;100.00
9462;BME280;4769;42.660;23.262;2023-01-25T03:11:10;95015.50;;;3.15;100.00
9462;BME280;4769;42.660;23.262;2023-01-25T03:13:37;95016.66;;;3.13;100.00
9462;BME280;4769;42.660;23.262;2023-01-25T03:16:06;95014.88;;;3.13;100.00
9462;BME280;4769;42.660;23.262;2023-01-25T03:18:35;95008.81;;;2.98;100.00
9462;BME280;4769;42.660;23.262;2023-01-25T03:21:07;95008.56;;;3.08;100.00
9462;BME280;4769;42.660;23.262;2023-01-25T03:23:34;95022.22;;;3.10;100.00
9462;BME280;4769;42.660;23.262;2023-01-25T03:26:08;95014.50;;;3.16;100.00
9462;BME280;4769;42.660;23.262;2023-01-25T03:28:36;95012.94;;;3.07;100.00
9462;BME280;4769;42.660;23.262;2023-01-25T03:31:03;95013.78;;;3.08;100.00
9462;BME280;4769;42.660;23.262;2023-01-25T03:33:30;95014.81;;;2.99;100.00
9462;BME280;4769;42.660;23.262;2023-01-25T03:35:59;95016.72;;;3.05;100.00
9462;BME280;4769;42.660;23.262;2023-01-25T03:38:27;95023.19;;;3.09;100.00
9462;BME280;4769;42.660;23.262;2023-01-25T03:40:54;95009.19;;;3.10;100.00
9462;BME280;4769;42.660;23.262;2023-01-25T03:43:21;95015.97;;;3.19;100.00
9462;BME280;4769;42.660;23.262;2023-01-25T03:45:51;95000.91;;;3.06;100.00
9462;BME280;4769;42.660;23.262;2023-01-25T03:48:19;95010.28;;;2.93;100.00
9462;BME280;4769;42.660;23.262;2023-01-25T03:50:49;95011.78;;;3.10;100.00
9462;BME280;4769;42.660;23.262;2023-01-25T03:53:24;94993.25;;;3.05;100.00
9462;BME280;4769;42.660;23.262;2023-01-25T03:55:55;95000.69;;;3.16;100.00
9462;BME280;4769;42.660;23.262;2023-01-25T03:58:22;94992.59;;;3.11;100.00
9462;BME280;4769;42.660;23.262;2023-01-25T04:00:49;95000.56;;;3.09;100.00
9462;BME280;4769;42.660;23.262;2023-01-25T04:03:16;94994.91;;;3.06;100.00
9462;BME280;4769;42.660;23.262;2023-01-25T04:05:44;94996.53;;;3.07;100.00
9462;BME280;4769;42.660;23.262;2023-01-25T04:08:11;94995.38;;;3.09;100.00
9462;BME280;4769;42.660;23.262;2023-01-25T04:10:40;94985.84;;;3.16;100.00
9462;BME280;4769;42.660;23.262;2023-01-25T04:13:06;94998.38;;;3.21;100.00
9462;BME280;4769;42.660;23.262;2023-01-25T04:15:33;94986.69;;;3.17;100.00
9462;BME280;4769;42.660;23.262;2023-01-25T04:18:00;94999.41;;;3.12;100.00
9462;BME280;4769;42.660;23.262;2023-01-25T04:20:27;94996.81;;;3.12;100.00
9462;BME280;4769;42.660;23.262;2023-01-25T04:22:53;94991.78;;;3.10;100.00
9462;BME280;4769;42.660;23.262;2023-01-25T04:25:20;94990.16;;;3.09;100.00
9462;BME280;4769;42.660;23.262;2023-01-25T04:27:48;94978.66;;;2.96;100.00
9462;BME280;4769;42.660;23.262;2023-01-25T04:30:16;94978.03;;;2.94;100.00
9462;BME280;4769;42.660;23.262;2023-01-25T04:32:42;94997.41;;;2.99;100.00
9462;BME280;4769;42.660;23.262;2023-01-25T04:35:09;94991.16;;;3.08;100.00
9462;BME280;4769;42.660;23.262;2023-01-25T04:37:36;95003.97;;;3.10;100.00
9462;BME280;4769;42.660;23.262;2023-01-25T04:40:04;94994.09;;;3.05;100.00
9462;BME280;4769;42.660;23.262;2023-01-25T04:42:31;95007.13;;;3.05;100.00
9462;BME280;4769;42.660;23.262;2023-01-25T04:44:59;95001.38;;;3.10;100.00
9462;BME280;4769;42.660;23.262;2023-01-25T04:47:26;94996.25;;;3.02;100.00
9462;BME280;4769;42.660;23.262;2023-01-25T04:49:53;94998.44;;;3.13;100.00
9462;BME280;4769;42.660;23.262;2023-01-25T04:52:19;95000.56;;;3.09;100.00
9462;BME280;4769;42.660;23.262;2023-01-25T04:54:46;95009.25;;;3.02;100.00
9462;BME280;4769;42.660;23.262;2023-01-25T04:57:13;95003.09;;;2.95;100.00
9462;BME280;4769;42.660;23.262;2023-01-25T04:59:40;94996.03;;;2.81;100.00
9462;BME280;4769;42.660;23.262;2023-01-25T05:02:08;95008.31;;;2.95;100.00
9462;BME280;4769;42.660;23.262;2023-01-25T05:04:34;95003.84;;;2.81;100.00
9462;BME280;4769;42.660;23.262;2023-01-25T05:07:01;94998.63;;;2.81;100.00
9462;BME280;4769;42.660;23.262;2023-01-25T05:09:28;95011.09;;;2.93;100.00
9462;BME280;4769;42.660;23.262;2023-01-25T05:11:55;95012.53;;;2.96;100.00
9462;BME280;4769;42.660;23.262;2023-01-25T05:14:22;95009.75;;;2.97;100.00
9462;BME280;4769;42.660;23.262;2023-01-25T05:16:49;95000.88;;;2.92;100.00
9462;BME280;4769;42.660;23.262;2023-01-25T05:19:17;94997.56;;;2.98;100.00
9462;BME280;4769;42.660;23.262;2023-01-25T05:21:44;94993.84;;;2.92;100.00
9462;BME280;4769;42.660;23.262;2023-01-25T05:24:26;94992.56;;;2.88;100.00
9462;BME280;4769;42.660;23.262;2023-01-25T05:26:53;95002.03;;;2.89;100.00
9462;BME280;4769;42.660;23.262;2023-01-25T05:29:26;95000.16;;;2.98;100.00
9462;BME280;4769;42.660;23.262;2023-01-25T05:31:53;95004.38;;;2.99;100.00
9462;BME280;4769;42.660;23.262;2023-01-25T05:34:21;95000.47;;;3.03;100.00
9462;BME280;4769;42.660;23.262;2023-01-25T05:36:48;95003.94;;;2.95;100.00
9462;BME280;4769;42.660;23.262;2023-01-25T05:39:16;95003.41;;;3.00;100.00
9462;BME280;4769;42.660;23.262;2023-01-25T05:41:42;94993.38;;;2.89;100.00
9462;BME280;4769;42.660;23.262;2023-01-25T05:44:09;95010.59;;;2.98;100.00
9462;BME280;4769;42.660;23.262;2023-01-25T05:46:36;94991.59;;;3.12;100.00
9462;BME280;4769;42.660;23.262;2023-01-25T05:49:03;95010.34;;;3.07;100.00
9462;BME280;4769;42.660;23.262;2023-01-25T05:51:31;94995.66;;;2.92;100.00
9462;BME280;4769;42.660;23.262;2023-01-25T05:53:58;95005.88;;;2.93;100.00
9462;BME280;4769;42.660;23.262;2023-01-25T05:56:24;95013.03;;;2.99;100.00
9462;BME280;4769;42.660;23.262;2023-01-25T05:58:52;95010.03;;;2.80;100.00
9462;BME280;4769;42.660;23.262;2023-01-25T06:01:19;95001.34;;;2.65;100.00
9462;BME280;4769;42.660;23.262;2023-01-25T06:03:47;95018.16;;;2.85;100.00
9462;BME280;4769;42.660;23.262;2023-01-25T06:06:13;95012.69;;;2.72;100.00
9462;BME280;4769;42.660;23.262;2023-01-25T06:08:42;95017.41;;;2.68;100.00
9462;BME280;4769;42.660;23.262;2023-01-25T06:11:10;94996.19;;;2.49;100.00
9462;BME280;4769;42.660;23.262;2023-01-25T06:13:37;95019.19;;;2.68;100.00
9462;BME280;4769;42.660;23.262;2023-01-25T06:16:04;95010.31;;;2.62;100.00
9462;BME280;4769;42.660;23.262;2023-01-25T06:18:33;95023.44;;;2.69;100.00
9462;BME280;4769;42.660;23.262;2023-01-25T06:21:01;95031.41;;;2.75;100.00
9462;BME280;4769;42.660;23.262;2023-01-25T06:23:28;95026.28;;;2.82;100.00
9462;BME280;4769;42.660;23.262;2023-01-25T06:25:58;95027.41;;;2.87;100.00
9462;BME280;4769;42.660;23.262;2023-01-25T06:28:25;95019.16;;;2.76;100.00
9462;BME280;4769;42.660;23.262;2023-01-25T06:30:52;95016.38;;;2.85;100.00
9462;BME280;4769;42.660;23.262;2023-01-25T06:33:18;95015.72;;;2.83;100.00
9462;BME280;4769;42.660;23.262;2023-01-25T06:35:45;95008.59;;;3.00;100.00
9462;BME280;4769;42.660;23.262;2023-01-25T06:38:12;95019.72;;;2.94;100.00
9462;BME280;4769;42.660;23.262;2023-01-25T06:40:39;95018.41;;;2.98;100.00
9462;BME280;4769;42.660;23.262;2023-01-25T06:43:07;95016.78;;;2.97;100.00
9462;BME280;4769;42.660;23.262;2023-01-25T06:45:34;95011.56;;;2.97;100.00
9462;BME280;4769;42.660;23.262;2023-01-25T06:48:01;95023.06;;;3.02;100.00
9462;BME280;4769;42.660;23.262;2023-01-25T06:50:28;95022.63;;;2.99;100.00
9462;BME280;4769;42.660;23.262;2023-01-25T06:52:55;95019.44;;;2.89;100.00
9462;BME280;4769;42.660;23.262;2023-01-25T06:55:22;95000.81;;;2.69;100.00
9462;BME280;4769;42.660;23.262;2023-01-25T06:57:49;95009.63;;;2.91;100.00
9462;BME280;4769;42.660;23.262;2023-01-25T07:00:18;95015.84;;;2.90;100.00
9462;BME280;4769;42.660;23.262;2023-01-25T07:02:45;95015.34;;;2.94;100.00
9462;BME280;4769;42.660;23.262;2023-01-25T07:05:12;95013.19;;;2.98;100.00
9462;BME280;4769;42.660;23.262;2023-01-25T07:07:38;95011.56;;;2.97;100.00
9462;BME280;4769;42.660;23.262;2023-01-25T07:10:06;95013.34;;;2.96;100.00
9462;BME280;4769;42.660;23.262;2023-01-25T07:12:33;95012.91;;;2.93;100.00
9462;BME280;4769;42.660;23.262;2023-01-25T07:15:00;95010.75;;;2.96;100.00
9462;BME280;4769;42.660;23.262;2023-01-25T07:17:28;95003.69;;;2.82;100.00
9462;BME280;4769;42.660;23.262;2023-01-25T07:19:55;94998.63;;;2.81;100.00
9462;BME280;4769;42.660;23.262;2023-01-25T07:22:22;94998.00;;;2.79;100.00
9462;BME280;4769;42.660;23.262;2023-01-25T07:24:49;95019.47;;;2.81;100.00
9462;BME280;4769;42.660;23.262;2023-01-25T07:27:17;95012.38;;;2.67;100.00
9462;BME280;4769;42.660;23.262;2023-01-25T07:29:44;95019.69;;;2.71;100.00
9462;BME280;4769;42.660;23.262;2023-01-25T07:32:11;95015.97;;;2.66;100.00
9462;BME280;4769;42.660;23.262;2023-01-25T07:34:41;95006.69;;;2.71;100.00
9462;BME280;4769;42.660;23.262;2023-01-25T07:37:08;95016.59;;;2.68;100.00
9462;BME280;4769;42.660;23.262;2023-01-25T07:39:34;95027.28;;;2.81;100.00
9462;BME280;4769;42.660;23.262;2023-01-25T07:42:01;95018.88;;;2.71;100.00
9462;BME280;4769;42.660;23.262;2023-01-25T07:44:28;95027.44;;;2.79;100.00
9462;BME280;4769;42.660;23.262;2023-01-25T07:46:55;95034.44;;;2.87;100.00
9462;BME280;4769;42.660;23.262;2023-01-25T07:49:22;95039.88;;;3.00;100.00
9462;BME280;4769;42.660;23.262;2023-01-25T07:51:50;95024.31;;;2.92;100.00
9462;BME280;4769;42.660;23.262;2023-01-25T07:54:17;95024.53;;;3.05;100.00
9462;BME280;4769;42.660;23.262;2023-01-25T07:56:44;95025.19;;;3.29;100.00
9462;BME280;4769;42.660;23.262;2023-01-25T07:59:11;95020.78;;;3.30;100.00
9462;BME280;4769;42.660;23.262;2023-01-25T08:01:38;95010.19;;;3.09;100.00
9462;BME280;4769;42.660;23.262;2023-01-25T08:04:06;95035.91;;;3.12;100.00
9462;BME280;4769;42.660;23.262;2023-01-25T08:06:35;95017.38;;;3.07;100.00
9462;BME280;4769;42.660;23.262;2023-01-25T08:09:05;95030.56;;;3.05;100.00
9462;BME280;4769;42.660;23.262;2023-01-25T08:11:32;95014.72;;;3.15;100.00
9462;BME280;4769;42.660;23.262;2023-01-25T08:13:59;95029.84;;;3.11;100.00
9462;BME280;4769;42.660;23.262;2023-01-25T08:16:28;95029.13;;;3.25;100.00
9462;BME280;4769;42.660;23.262;2023-01-25T08:18:57;95022.66;;;2.91;100.00
9462;BME280;4769;42.660;23.262;2023-01-25T08:21:26;95025.75;;;2.94;100.00
9462;BME280;4769;42.660;23.262;2023-01-25T08:23:56;95026.63;;;2.87;100.00
9462;BME280;4769;42.660;23.262;2023-01-25T08:26:25;95035.50;;;2.92;100.00
9462;BME280;4769;42.660;23.262;2023-01-25T08:28:52;95015.63;;;2.99;100.00
9462;BME280;4769;42.660;23.262;2023-01-25T08:31:21;94998.56;;;2.97;100.00
9462;BME280;4769;42.660;23.262;2023-01-25T08:33:49;95007.69;;;2.93;100.00
9462;BME280;4769;42.660;23.262;2023-01-25T08:36:17;95018.44;;;2.90;100.00
9462;BME280;4769;42.660;23.262;2023-01-25T08:38:44;95023.28;;;3.01;100.00
9462;BME280;4769;42.660;23.262;2023-01-25T08:41:13;95012.50;;;3.04;100.00
9462;BME280;4769;42.660;23.262;2023-01-25T08:43:43;95020.88;;;2.91;100.00
9462;BME280;4769;42.660;23.262;2023-01-25T08:46:10;95006.38;;;2.97;100.00
9462;BME280;4769;42.660;23.262;2023-01-25T08:48:38;95001.72;;;3.07;100.00
9462;BME280;4769;42.660;23.262;2023-01-25T08:51:07;95004.59;;;3.20;100.00
9462;BME280;4769;42.660;23.262;2023-01-25T08:53:34;95010.41;;;3.22;100.00
9462;BME280;4769;42.660;23.262;2023-01-25T08:56:03;94992.34;;;3.20;100.00
9462;BME280;4769;42.660;23.262;2023-01-25T08:58:31;95008.84;;;3.13;100.00
9462;BME280;4769;42.660;23.262;2023-01-25T09:01:03;95017.63;;;3.20;100.00
9462;BME280;4769;42.660;23.262;2023-01-25T09:03:34;95015.91;;;3.27;100.00
9462;BME280;4769;42.660;23.262;2023-01-25T09:06:05;94995.81;;;3.13;100.00
9462;BME280;4769;42.660;23.262;2023-01-25T09:08:33;95001.97;;;3.20;100.00
9462;BME280;4769;42.660;23.262;2023-01-25T09:11:00;95014.00;;;3.43;100.00
9462;BME280;4769;42.660;23.262;2023-01-25T09:13:28;95019.75;;;3.39;100.00
9462;BME280;4769;42.660;23.262;2023-01-25T09:15:58;95000.41;;;3.33;100.00
9462;BME280;4769;42.660;23.262;2023-01-25T09:18:28;94996.78;;;3.34;100.00
9462;BME280;4769;42.660;23.262;2023-01-25T09:20:56;94997.78;;;3.33;100.00
9462;BME280;4769;42.660;23.262;2023-01-25T09:23:24;94986.16;;;3.44;100.00
9462;BME280;4769;42.660;23.262;2023-01-25T09:25:55;94998.75;;;3.55;100.00
9462;BME280;4769;42.660;23.262;2023-01-25T09:28:23;94995.69;;;3.51;100.00
9462;BME280;4769;42.660;23.262;2023-01-25T09:30:54;94985.81;;;3.61;100.00
9462;BME280;4769;42.660;23.262;2023-01-25T09:33:24;94991.47;;;3.65;100.00
9462;BME280;4769;42.660;23.262;2023-01-25T09:35:52;94968.56;;;3.60;100.00
9462;BME280;4769;42.660;23.262;2023-01-25T09:38:18;94965.06;;;3.68;100.00
9462;BME280;4769;42.660;23.262;2023-01-25T09:40:54;94971.00;;;3.76;100.00
9462;BME280;4769;42.660;23.262;2023-01-25T09:43:33;94968.03;;;3.79;100.00
9462;BME280;4769;42.660;23.262;2023-01-25T09:46:18;94967.50;;;3.84;100.00
9462;BME280;4769;42.660;23.262;2023-01-25T09:48:54;94956.44;;;3.82;100.00
9462;BME280;4769;42.660;23.262;2023-01-25T09:51:32;94949.22;;;3.84;100.00
9462;BME280;4769;42.660;23.262;2023-01-25T09:54:08;94950.59;;;3.94;100.00
9462;BME280;4769;42.660;23.262;2023-01-25T09:56:36;94951.16;;;3.90;100.00
9462;BME280;4769;42.660;23.262;2023-01-25T09:59:09;94942.56;;;3.81;100.00
9462;BME280;4769;42.660;23.262;2023-01-25T10:01:43;94947.09;;;3.73;100.00
9462;BME280;4769;42.660;23.262;2023-01-25T10:04:14;94940.44;;;3.70;100.00
9462;BME280;4769;42.660;23.262;2023-01-25T10:06:46;94921.53;;;3.54;100.00
9462;BME280;4769;42.660;23.262;2023-01-25T10:09:28;94931.41;;;3.58;100.00
9462;BME280;4769;42.660;23.262;2023-01-25T10:12:17;94930.72;;;3.64;100.00
9462;BME280;4769;42.660;23.262;2023-01-25T10:14:44;94925.03;;;3.61;100.00
9462;BME280;4769;42.660;23.262;2023-01-25T10:17:16;94917.50;;;3.66;100.00
9462;BME280;4769;42.660;23.262;2023-01-25T10:19:56;94917.75;;;3.85;100.00
9462;BME280;4769;42.660;23.262;2023-01-25T10:22:29;94913.47;;;3.92;100.00
9462;BME280;4769;42.660;23.262;2023-01-25T10:30:47;94900.16;;;3.87;100.00
9462;BME280;4769;42.660;23.262;2023-01-25T10:33:17;94902.28;;;3.98;100.00
9462;BME280;4769;42.660;23.262;2023-01-25T10:35:46;94903.81;;;4.07;100.00
9462;BME280;4769;42.660;23.262;2023-01-25T10:38:19;94899.28;;;4.16;100.00
9462;BME280;4769;42.660;23.262;2023-01-25T10:40:50;94881.69;;;4.03;100.00
9462;BME280;4769;42.660;23.262;2023-01-25T10:43:23;94888.34;;;4.06;99.87
9462;BME280;4769;42.660;23.262;2023-01-25T10:45:50;94876.56;;;3.95;99.99
9462;BME280;4769;42.660;23.262;2023-01-25T10:48:19;94885.19;;;3.96;99.48
9462;BME280;4769;42.660;23.262;2023-01-25T10:50:49;94861.72;;;3.81;99.97
9462;BME280;4769;42.660;23.262;2023-01-25T10:53:29;94868.19;;;4.00;100.00
9462;BME280;4769;42.660;23.262;2023-01-25T10:56:05;94866.13;;;3.95;98.82
9462;BME280;4769;42.660;23.262;2023-01-25T10:58:38;94871.06;;;3.90;99.04
9462;BME280;4769;42.660;23.262;2023-01-25T11:01:09;94869.59;;;4.17;99.53
9462;BME280;4769;42.660;23.262;2023-01-25T11:03:39;94854.25;;;4.28;99.54
9462;BME280;4769;42.660;23.262;2023-01-25T11:06:09;94845.97;;;4.39;98.91
9462;BME280;4769;42.660;23.262;2023-01-25T11:08:38;94862.91;;;4.64;97.86
9462;BME280;4769;42.660;23.262;2023-01-25T11:11:23;94854.31;;;4.49;97.32
9462;BME280;4769;42.660;23.262;2023-01-25T11:13:53;94857.91;;;4.48;97.25
9462;BME280;4769;42.660;23.262;2023-01-25T11:16:31;94851.25;;;4.46;95.23
9462;BME280;4769;42.660;23.262;2023-01-25T11:19:00;94837.63;;;4.29;94.88
9462;BME280;4769;42.660;23.262;2023-01-25T11:21:29;94846.16;;;4.38;94.99
9462;BME280;4769;42.660;23.262;2023-01-25T11:24:03;94834.28;;;4.35;95.64
9462;BME280;4769;42.660;23.262;2023-01-25T11:26:40;94822.75;;;4.30;95.36
9462;BME280;4769;42.660;23.262;2023-01-25T11:29:13;94819.53;;;4.49;95.35
9462;BME280;4769;42.660;23.262;2023-01-25T11:31:42;94836.47;;;4.53;94.49
9462;BME280;4769;42.660;23.262;2023-01-25T11:34:11;94831.47;;;4.58;94.41
9462;BME280;4769;42.660;23.262;2023-01-25T11:36:48;94830.38;;;4.67;94.42
9462;BME280;4769;42.660;23.262;2023-01-25T11:39:33;94814.44;;;4.62;92.41
9462;BME280;4769;42.660;23.262;2023-01-25T11:42:14;94817.44;;;4.80;92.04
9462;BME280;4769;42.660;23.262;2023-01-25T11:45:01;94809.00;;;4.78;92.72
9462;BME280;4769;42.660;23.262;2023-01-25T11:47:50;94803.00;;;4.84;92.83
9462;BME280;4769;42.660;23.262;2023-01-25T11:50:25;94801.75;;;4.80;91.88
9462;BME280;4769;42.660;23.262;2023-01-25T11:53:09;94792.56;;;4.63;91.91
9462;BME280;4769;42.660;23.262;2023-01-25T11:55:48;94794.38;;;4.62;91.42
9462;BME280;4769;42.660;23.262;2023-01-25T11:58:33;94797.34;;;4.80;91.84
9462;BME280;4769;42.660;23.262;2023-01-25T12:01:09;94794.88;;;4.72;91.38
9462;BME280;4769;42.660;23.262;2023-01-25T12:06:58;94789.22;;;4.69;92.22
9462;BME280;4769;42.660;23.262;2023-01-25T12:09:44;94773.66;;;4.61;90.37
9462;BME280;4769;42.660;23.262;2023-01-25T12:12:23;94777.53;;;4.65;90.11
9462;BME280;4769;42.660;23.262;2023-01-25T12:15:14;94779.84;;;4.81;90.09
9462;BME280;4769;42.660;23.262;2023-01-25T12:17:58;94771.13;;;4.67;90.37
9462;BME280;4769;42.660;23.262;2023-01-25T12:20:38;94772.59;;;4.76;90.44
9462;BME280;4769;42.660;23.262;2023-01-25T12:23:24;94763.47;;;4.66;90.31
9462;BME280;4769;42.660;23.262;2023-01-25T12:26:05;94775.22;;;4.76;89.11
9462;BME280;4769;42.660;23.262;2023-01-25T12:28:41;94772.41;;;4.78;90.35
9462;BME280;4769;42.660;23.262;2023-01-25T12:31:14;94754.25;;;4.70;90.98
9462;BME280;4769;42.660;23.262;2023-01-25T12:33:47;94751.00;;;4.68;90.47
9462;BME280;4769;42.660;23.262;2023-01-25T12:36:17;94761.25;;;4.90;89.94
9462;BME280;4769;42.660;23.262;2023-01-25T12:38:51;94761.03;;;4.64;90.01
9462;BME280;4769;42.660;23.262;2023-01-25T12:41:32;94750.31;;;4.32;90.87
9462;BME280;4769;42.660;23.262;2023-01-25T12:44:11;94751.75;;;4.34;90.50
9462;BME280;4769;42.660;23.262;2023-01-25T12:46:44;94751.09;;;4.53;90.58
9462;BME280;4769;42.660;23.262;2023-01-25T12:49:18;94754.31;;;4.55;90.79
9462;BME280;4769;42.660;23.262;2023-01-25T12:51:47;94746.88;;;4.52;89.88
9462;BME280;4769;42.660;23.262;2023-01-25T12:54:19;94742.56;;;4.45;89.24
9462;BME280;4769;42.660;23.262;2023-01-25T12:56:55;94752.28;;;4.30;90.76
9462;BME280;4769;42.660;23.262;2023-01-25T12:59:32;94745.69;;;4.34;91.02
9462;BME280;4769;42.660;23.262;2023-01-25T13:02:09;94747.88;;;4.30;91.12
9462;BME280;4769;42.660;23.262;2023-01-25T13:04:52;94731.34;;;4.23;90.37
9462;BME280;4769;42.660;23.262;2023-01-25T13:07:28;94735.00;;;4.29;90.72
9462;BME280;4769;42.660;23.262;2023-01-25T13:10:00;94719.00;;;4.32;90.60
9462;BME280;4769;42.660;23.262;2023-01-25T13:12:28;94722.28;;;4.40;90.27
9462;BME280;4769;42.660;23.262;2023-01-25T13:14:57;94716.44;;;4.38;90.40
9462;BME280;4769;42.660;23.262;2023-01-25T13:17:29;94730.41;;;4.52;90.83
9462;BME280;4769;42.660;23.262;2023-01-25T13:19:58;94715.31;;;4.47;90.44
9462;BME280;4769;42.660;23.262;2023-01-25T13:22:53;94723.09;;;4.41;90.42
9462;BME280;4769;42.660;23.262;2023-01-25T13:25:23;94719.66;;;4.40;89.99
9462;BME280;4769;42.660;23.262;2023-01-25T13:27:50;94723.19;;;4.12;90.30
9462;BME280;4769;42.660;23.262;2023-01-25T13:30:29;94724.81;;;4.34;90.90
9462;BME280;4769;42.660;23.262;2023-01-25T13:32:58;94724.56;;;4.29;90.33
9462;BME280;4769;42.660;23.262;2023-01-25T13:35:39;94713.31;;;4.28;90.03